sensor_id;sensor_type;location;lat;lon;timestamp;P1;durP1;ratioP1;P2;durP2;ratioP2
42586;SDS011;28216;53.362;-6.288;2023-05-20T00:00:29;17.58;;;5.43;;
42586;SDS011;28216;53.362;-6.288;2023-05-20T00:02:57;17.88;;;5.47;;
42586;SDS011;28216;53.362;-6.288;2023-05-20T00:05:30;26.77;;;9.90;;
42586;SDS011;28216;53.362;-6.288;2023-05-20T00:08:16;26.35;;;9.60;;
42586;SDS011;28216;53.362;-6.288;2023-05-20T00:10:47;20.52;;;6.05;;
42586;SDS011;28216;53.362;-6.288;2023-05-20T00:13:23;24.35;;;6.07;;
42586;SDS011;28216;53.362;-6.288;2023-05-20T00:18:50;20.25;;;5.88;;
42586;SDS011;28216;53.362;-6.288;2023-05-20T00:21:36;19.23;;;6.47;;
42586;SDS011;28216;53.362;-6.288;2023-05-20T00:24:04;21.60;;;6.68;;
42586;SDS011;28216;53.362;-6.288;2023-05-20T00:26:38;19.25;;;5.80;;
42586;SDS011;28216;53.362;-6.288;2023-05-20T00:29:04;17.95;;;5.38;;
42586;SDS011;28216;53.362;-6.288;2023-05-20T00:31:29;22.30;;;6.43;;
42586;SDS011;28216;53.362;-6.288;2023-05-20T00:33:59;18.75;;;6.07;;
42586;SDS011;28216;53.362;-6.288;2023-05-20T00:36:28;16.30;;;5.57;;
42586;SDS011;28216;53.362;-6.288;2023-05-20T00:38:54;21.67;;;6.20;;
42586;SDS011;28216;53.362;-6.288;2023-05-20T00:41:22;18.73;;;6.05;;
42586;SDS011;28216;53.362;-6.288;2023-05-20T00:43:59;22.80;;;6.13;;
42586;SDS011;28216;53.362;-6.288;2023-05-20T00:46:35;20.73;;;5.95;;
42586;SDS011;28216;53.362;-6.288;2023-05-20T00:49:06;21.00;;;6.07;;
42586;SDS011;28216;53.362;-6.288;2023-05-20T00:51:39;23.42;;;6.72;;
42586;SDS011;28216;53.362;-6.288;2023-05-20T00:54:08;17.38;;;6.43;;
42586;SDS011;28216;53.362;-6.288;2023-05-20T00:56:44;19.23;;;5.68;;
42586;SDS011;28216;53.362;-6.288;2023-05-20T00:59:11;21.05;;;6.22;;
42586;SDS011;28216;53.362;-6.288;2023-05-20T01:01:37;17.67;;;6.10;;
42586;SDS011;28216;53.362;-6.288;2023-05-20T01:04:10;16.27;;;6.00;;
42586;SDS011;28216;53.362;-6.288;2023-05-20T01:06:38;19.58;;;6.05;;
42586;SDS011;28216;53.362;-6.288;2023-05-20T01:09:10;19.15;;;6.38;;
42586;SDS011;28216;53.362;-6.288;2023-05-20T01:11:38;18.80;;;5.95;;
42586;SDS011;28216;53.362;-6.288;2023-05-20T01:14:16;18.67;;;5.57;;
42586;SDS011;28216;53.362;-6.288;2023-05-20T01:16:44;23.45;;;6.18;;
42586;SDS011;28216;53.362;-6.288;2023-05-20T01:19:26;20.92;;;6.30;;
42586;SDS011;28216;53.362;-6.288;2023-05-20T01:22:02;18.70;;;6.47;;
42586;SDS011;28216;53.362;-6.288;2023-05-20T01:24:35;15.50;;;5.90;;
42586;SDS011;28216;53.362;-6.288;2023-05-20T01:27:04;17.83;;;5.95;;
42586;SDS011;28216;53.362;-6.288;2023-05-20T01:29:47;19.27;;;5.68;;
42586;SDS011;28216;53.362;-6.288;2023-05-20T01:35:16;18.45;;;5.75;;
42586;SDS011;28216;53.362;-6.288;2023-05-20T01:37:49;17.95;;;6.05;;
42586;SDS011;28216;53.362;-6.288;2023-05-20T01:40:28;15.93;;;5.65;;
42586;SDS011;28216;53.362;-6.288;2023-05-20T01:42:59;22.05;;;6.05;;
42586;SDS011;28216;53.362;-6.288;2023-05-20T01:45:29;15.95;;;5.68;;
42586;SDS011;28216;53.362;-6.288;2023-05-20T01:47:57;24.40;;;6.35;;
42586;SDS011;28216;53.362;-6.288;2023-05-20T01:50:32;20.70;;;6.55;;
42586;SDS011;28216;53.362;-6.288;2023-05-20T01:52:58;18.65;;;5.88;;
42586;SDS011;28216;53.362;-6.288;2023-05-20T01:55:34;18.48;;;5.85;;
42586;SDS011;28216;53.362;-6.288;2023-05-20T01:58:01;18.02;;;6.25;;
42586;SDS011;28216;53.362;-6.288;2023-05-20T02:00:34;19.23;;;5.97;;
42586;SDS011;28216;53.362;-6.288;2023-05-20T02:03:05;18.90;;;6.22;;
42586;SDS011;28216;53.362;-6.288;2023-05-20T02:05:33;16.58;;;6.28;;
42586;SDS011;28216;53.362;-6.288;2023-05-20T02:07:59;22.90;;;6.60;;
42586;SDS011;28216;53.362;-6.288;2023-05-20T02:10:26;20.58;;;6.50;;
42586;SDS011;28216;53.362;-6.288;2023-05-20T02:12:54;20.30;;;6.82;;
42586;SDS011;28216;53.362;-6.288;2023-05-20T02:15:24;16.83;;;6.30;;
42586;SDS011;28216;53.362;-6.288;2023-05-20T02:17:52;21.77;;;6.70;;
42586;SDS011;28216;53.362;-6.288;2023-05-20T02:20:22;19.83;;;6.57;;
42586;SDS011;28216;53.362;-6.288;2023-05-20T02:22:48;22.27;;;5.65;;
42586;SDS011;28216;53.362;-6.288;2023-05-20T02:25:13;19.17;;;5.45;;
42586;SDS011;28216;53.362;-6.288;2023-05-20T02:27:41;20.30;;;6.13;;
42586;SDS011;28216;53.362;-6.288;2023-05-20T02:30:09;19.27;;;6.00;;
42586;SDS011;28216;53.362;-6.288;2023-05-20T02:32:47;22.90;;;6.32;;
42586;SDS011;28216;53.362;-6.288;2023-05-20T02:35:16;18.50;;;5.88;;
42586;SDS011;28216;53.362;-6.288;2023-05-20T02:37:51;21.88;;;6.15;;
42586;SDS011;28216;53.362;-6.288;2023-05-20T02:40:19;18.58;;;6.35;;
42586;SDS011;28216;53.362;-6.288;2023-05-20T02:42:58;19.98;;;5.75;;
42586;SDS011;28216;53.362;-6.288;2023-05-20T02:45:33;19.27;;;5.10;;
42586;SDS011;28216;53.362;-6.288;2023-05-20T02:50:39;21.25;;;6.07;;
42586;SDS011;28216;53.362;-6.288;2023-05-20T02:53:08;20.13;;;5.80;;
42586;SDS011;28216;53.362;-6.288;2023-05-20T02:55:44;19.70;;;6.40;;
42586;SDS011;28216;53.362;-6.288;2023-05-20T02:58:12;20.48;;;6.22;;
42586;SDS011;28216;53.362;-6.288;2023-05-20T03:00:40;20.40;;;6.25;;
42586;SDS011;28216;53.362;-6.288;2023-05-20T03:03:06;20.98;;;6.05;;
42586;SDS011;28216;53.362;-6.288;2023-05-20T03:05:38;24.15;;;6.50;;
42586;SDS011;28216;53.362;-6.288;2023-05-20T03:08:07;22.65;;;6.18;;
42586;SDS011;28216;53.362;-6.288;2023-05-20T03:10:37;22.70;;;5.93;;
42586;SDS011;28216;53.362;-6.288;2023-05-20T03:13:06;17.73;;;6.07;;
42586;SDS011;28216;53.362;-6.288;2023-05-20T03:15:33;23.88;;;5.55;;
42586;SDS011;28216;53.362;-6.288;2023-05-20T03:18:00;20.25;;;6.13;;
42586;SDS011;28216;53.362;-6.288;2023-05-20T03:20:27;18.75;;;5.70;;
42586;SDS011;28216;53.362;-6.288;2023-05-20T03:23:04;20.45;;;6.05;;
42586;SDS011;28216;53.362;-6.288;2023-05-20T03:25:30;22.80;;;6.40;;
42586;SDS011;28216;53.362;-6.288;2023-05-20T03:27:56;20.20;;;5.88;;
42586;SDS011;28216;53.362;-6.288;2023-05-20T03:30:27;20.75;;;6.82;;
42586;SDS011;28216;53.362;-6.288;2023-05-20T03:32:55;27.10;;;6.45;;
42586;SDS011;28216;53.362;-6.288;2023-05-20T03:35:24;24.92;;;6.68;;
42586;SDS011;28216;53.362;-6.288;2023-05-20T03:37:52;17.08;;;5.90;;
42586;SDS011;28216;53.362;-6.288;2023-05-20T03:40:31;21.02;;;6.20;;
42586;SDS011;28216;53.362;-6.288;2023-05-20T03:43:04;24.20;;;6.43;;
42586;SDS011;28216;53.362;-6.288;2023-05-20T03:45:42;24.02;;;6.47;;
42586;SDS011;28216;53.362;-6.288;2023-05-20T03:48:19;23.13;;;6.82;;
42586;SDS011;28216;53.362;-6.288;2023-05-20T03:50:45;21.13;;;6.05;;
42586;SDS011;28216;53.362;-6.288;2023-05-20T03:53:13;24.02;;;5.85;;
42586;SDS011;28216;53.362;-6.288;2023-05-20T03:55:44;22.85;;;5.85;;
42586;SDS011;28216;53.362;-6.288;2023-05-20T03:58:13;22.38;;;6.13;;
42586;SDS011;28216;53.362;-6.288;2023-05-20T04:00:50;22.52;;;6.30;;
42586;SDS011;28216;53.362;-6.288;2023-05-20T04:03:21;23.27;;;6.13;;
42586;SDS011;28216;53.362;-6.288;2023-05-20T04:05:54;25.38;;;6.55;;
42586;SDS011;28216;53.362;-6.288;2023-05-20T04:08:27;16.98;;;5.72;;
42586;SDS011;28216;53.362;-6.288;2023-05-20T04:11:03;23.38;;;6.22;;
42586;SDS011;28216;53.362;-6.288;2023-05-20T04:13:28;23.05;;;6.55;;
42586;SDS011;28216;53.362;-6.288;2023-05-20T04:16:04;24.38;;;6.55;;
42586;SDS011;28216;53.362;-6.288;2023-05-20T04:18:30;21.10;;;6.72;;
42586;SDS011;28216;53.362;-6.288;2023-05-20T04:21:03;24.35;;;6.35;;
42586;SDS011;28216;53.362;-6.288;2023-05-20T04:23:32;23.48;;;6.32;;
42586;SDS011;28216;53.362;-6.288;2023-05-20T04:25:58;20.25;;;5.63;;
42586;SDS011;28216;53.362;-6.288;2023-05-20T04:28:26;24.02;;;6.88;;
42586;SDS011;28216;53.362;-6.288;2023-05-20T04:31:01;20.40;;;6.00;;
42586;SDS011;28216;53.362;-6.288;2023-05-20T04:33:30;22.02;;;6.93;;
42586;SDS011;28216;53.362;-6.288;2023-05-20T04:36:12;24.35;;;6.57;;
42586;SDS011;28216;53.362;-6.288;2023-05-20T04:38:40;17.17;;;5.90;;
42586;SDS011;28216;53.362;-6.288;2023-05-20T04:41:16;22.13;;;6.32;;
42586;SDS011;28216;53.362;-6.288;2023-05-20T04:43:42;25.05;;;6.82;;
42586;SDS011;28216;53.362;-6.288;2023-05-20T04:46:13;21.77;;;7.53;;
42586;SDS011;28216;53.362;-6.288;2023-05-20T04:48:38;18.58;;;6.60;;
42586;SDS011;28216;53.362;-6.288;2023-05-20T04:51:09;20.52;;;6.57;;
42586;SDS011;28216;53.362;-6.288;2023-05-20T04:53:37;22.38;;;6.35;;
42586;SDS011;28216;53.362;-6.288;2023-05-20T04:56:08;20.20;;;6.55;;
42586;SDS011;28216;53.362;-6.288;2023-05-20T04:58:36;17.58;;;6.07;;
42586;SDS011;28216;53.362;-6.288;2023-05-20T05:01:11;15.68;;;6.13;;
42586;SDS011;28216;53.362;-6.288;2023-05-20T05:03:42;20.45;;;6.57;;
42586;SDS011;28216;53.362;-6.288;2023-05-20T05:09:18;15.75;;;6.50;;
42586;SDS011;28216;53.362;-6.288;2023-05-20T05:11:49;20.98;;;6.88;;
42586;SDS011;28216;53.362;-6.288;2023-05-20T05:14:17;22.23;;;6.80;;
42586;SDS011;28216;53.362;-6.288;2023-05-20T05:16:55;27.75;;;7.63;;
42586;SDS011;28216;53.362;-6.288;2023-05-20T05:19:27;20.90;;;6.80;;
42586;SDS011;28216;53.362;-6.288;2023-05-20T05:21:55;18.30;;;5.60;;
42586;SDS011;28216;53.362;-6.288;2023-05-20T05:24:21;16.55;;;5.80;;
42586;SDS011;28216;53.362;-6.288;2023-05-20T05:26:55;18.83;;;5.35;;
42586;SDS011;28216;53.362;-6.288;2023-05-20T05:29:32;20.70;;;6.00;;
42586;SDS011;28216;53.362;-6.288;2023-05-20T05:31:58;21.55;;;4.88;;
42586;SDS011;28216;53.362;-6.288;2023-05-20T05:34:26;20.35;;;5.65;;
42586;SDS011;28216;53.362;-6.288;2023-05-20T05:39:55;22.17;;;5.63;;
42586;SDS011;28216;53.362;-6.288;2023-05-20T05:42:21;16.10;;;5.13;;
42586;SDS011;28216;53.362;-6.288;2023-05-20T05:44:47;15.35;;;4.93;;
42586;SDS011;28216;53.362;-6.288;2023-05-20T05:47:15;20.23;;;5.47;;
42586;SDS011;28216;53.362;-6.288;2023-05-20T05:49:43;17.73;;;4.72;;
42586;SDS011;28216;53.362;-6.288;2023-05-20T05:52:13;18.98;;;5.10;;
42586;SDS011;28216;53.362;-6.288;2023-05-20T05:54:38;17.98;;;5.20;;
42586;SDS011;28216;53.362;-6.288;2023-05-20T05:57:04;20.17;;;5.88;;
42586;SDS011;28216;53.362;-6.288;2023-05-20T05:59:33;18.98;;;5.22;;
42586;SDS011;28216;53.362;-6.288;2023-05-20T06:01:59;20.67;;;5.45;;
42586;SDS011;28216;53.362;-6.288;2023-05-20T06:04:28;16.52;;;5.35;;
42586;SDS011;28216;53.362;-6.288;2023-05-20T06:06:55;20.70;;;5.88;;
42586;SDS011;28216;53.362;-6.288;2023-05-20T06:09:23;17.40;;;5.70;;
42586;SDS011;28216;53.362;-6.288;2023-05-20T06:11:49;17.20;;;5.57;;
42586;SDS011;28216;53.362;-6.288;2023-05-20T06:14:35;15.40;;;5.10;;
42586;SDS011;28216;53.362;-6.288;2023-05-20T06:17:20;19.52;;;5.70;;
42586;SDS011;28216;53.362;-6.288;2023-05-20T06:19:52;16.98;;;5.28;;
42586;SDS011;28216;53.362;-6.288;2023-05-20T06:22:42;17.20;;;5.22;;
42586;SDS011;28216;53.362;-6.288;2023-05-20T06:25:10;19.55;;;5.00;;
42586;SDS011;28216;53.362;-6.288;2023-05-20T06:27:36;18.13;;;5.55;;
42586;SDS011;28216;53.362;-6.288;2023-05-20T06:30:04;21.27;;;4.95;;
42586;SDS011;28216;53.362;-6.288;2023-05-20T06:32:33;13.40;;;4.60;;
42586;SDS011;28216;53.362;-6.288;2023-05-20T06:34:58;16.10;;;4.80;;
42586;SDS011;28216;53.362;-6.288;2023-05-20T06:37:27;11.52;;;4.22;;
42586;SDS011;28216;53.362;-6.288;2023-05-20T06:39:57;12.30;;;4.75;;
42586;SDS011;28216;53.362;-6.288;2023-05-20T06:42:26;17.10;;;5.10;;
42586;SDS011;28216;53.362;-6.288;2023-05-20T06:44:54;13.13;;;4.32;;
42586;SDS011;28216;53.362;-6.288;2023-05-20T06:47:21;16.02;;;4.60;;
42586;SDS011;28216;53.362;-6.288;2023-05-20T06:49:50;17.98;;;4.82;;
42586;SDS011;28216;53.362;-6.288;2023-05-20T06:52:15;14.70;;;4.68;;
42586;SDS011;28216;53.362;-6.288;2023-05-20T06:54:41;17.67;;;5.00;;
42586;SDS011;28216;53.362;-6.288;2023-05-20T06:57:07;13.60;;;4.45;;
42586;SDS011;28216;53.362;-6.288;2023-05-20T06:59:33;14.68;;;4.82;;
42586;SDS011;28216;53.362;-6.288;2023-05-20T07:01:59;19.08;;;4.82;;
42586;SDS011;28216;53.362;-6.288;2023-05-20T07:04:25;13.82;;;4.68;;
42586;SDS011;28216;53.362;-6.288;2023-05-20T07:06:50;14.77;;;4.95;;
42586;SDS011;28216;53.362;-6.288;2023-05-20T07:09:21;20.48;;;5.75;;
42586;SDS011;28216;53.362;-6.288;2023-05-20T07:12:15;16.13;;;5.55;;
42586;SDS011;28216;53.362;-6.288;2023-05-20T07:18:10;15.40;;;5.05;;
42586;SDS011;28216;53.362;-6.288;2023-05-20T07:20:36;16.08;;;5.10;;
42586;SDS011;28216;53.362;-6.288;2023-05-20T07:23:05;14.77;;;5.25;;
42586;SDS011;28216;53.362;-6.288;2023-05-20T07:28:53;14.95;;;5.18;;
42586;SDS011;28216;53.362;-6.288;2023-05-20T07:31:19;16.27;;;4.82;;
42586;SDS011;28216;53.362;-6.288;2023-05-20T07:33:44;15.48;;;4.88;;
42586;SDS011;28216;53.362;-6.288;2023-05-20T07:36:11;16.35;;;5.38;;
42586;SDS011;28216;53.362;-6.288;2023-05-20T07:38:39;18.33;;;5.97;;
42586;SDS011;28216;53.362;-6.288;2023-05-20T07:41:05;17.23;;;5.22;;
42586;SDS011;28216;53.362;-6.288;2023-05-20T07:43:32;18.25;;;4.82;;
42586;SDS011;28216;53.362;-6.288;2023-05-20T07:45:57;14.43;;;5.43;;
42586;SDS011;28216;53.362;-6.288;2023-05-20T07:48:27;16.15;;;5.30;;
42586;SDS011;28216;53.362;-6.288;2023-05-20T07:50:53;16.80;;;5.03;;
42586;SDS011;28216;53.362;-6.288;2023-05-20T07:53:38;18.50;;;5.03;;
42586;SDS011;28216;53.362;-6.288;2023-05-20T07:56:17;15.27;;;5.10;;
42586;SDS011;28216;53.362;-6.288;2023-05-20T07:58:42;16.77;;;5.15;;
42586;SDS011;28216;53.362;-6.288;2023-05-20T08:01:21;17.02;;;5.40;;
42586;SDS011;28216;53.362;-6.288;2023-05-20T08:04:00;14.75;;;5.03;;
42586;SDS011;28216;53.362;-6.288;2023-05-20T08:09:53;11.80;;;4.90;;
42586;SDS011;28216;53.362;-6.288;2023-05-20T08:12:33;14.35;;;5.28;;
42586;SDS011;28216;53.362;-6.288;2023-05-20T08:15:21;13.63;;;5.18;;
42586;SDS011;28216;53.362;-6.288;2023-05-20T08:17:49;12.52;;;4.80;;
42586;SDS011;28216;53.362;-6.288;2023-05-20T08:20:20;18.00;;;8.77;;
42586;SDS011;28216;53.362;-6.288;2023-05-20T08:22:51;16.08;;;4.90;;
42586;SDS011;28216;53.362;-6.288;2023-05-20T08:25:17;14.35;;;5.10;;
42586;SDS011;28216;53.362;-6.288;2023-05-20T08:27:48;14.80;;;4.82;;
42586;SDS011;28216;53.362;-6.288;2023-05-20T08:30:13;13.13;;;4.85;;
42586;SDS011;28216;53.362;-6.288;2023-05-20T08:32:39;11.77;;;4.63;;
42586;SDS011;28216;53.362;-6.288;2023-05-20T08:35:05;14.25;;;4.78;;
42586;SDS011;28216;53.362;-6.288;2023-05-20T08:37:31;10.93;;;4.80;;
42586;SDS011;28216;53.362;-6.288;2023-05-20T08:39:57;13.75;;;4.78;;
42586;SDS011;28216;53.362;-6.288;2023-05-20T08:42:23;14.85;;;4.18;;
42586;SDS011;28216;53.362;-6.288;2023-05-20T08:44:52;17.48;;;4.93;;
42586;SDS011;28216;53.362;-6.288;2023-05-20T08:47:20;15.15;;;4.70;;
42586;SDS011;28216;53.362;-6.288;2023-05-20T08:49:49;14.35;;;4.85;;
42586;SDS011;28216;53.362;-6.288;2023-05-20T08:52:15;16.10;;;4.85;;
42586;SDS011;28216;53.362;-6.288;2023-05-20T08:54:46;14.70;;;4.80;;
42586;SDS011;28216;53.362;-6.288;2023-05-20T08:57:13;14.45;;;4.57;;
42586;SDS011;28216;53.362;-6.288;2023-05-20T08:59:42;13.40;;;5.03;;
42586;SDS011;28216;53.362;-6.288;2023-05-20T09:02:11;16.17;;;4.90;;
42586;SDS011;28216;53.362;-6.288;2023-05-20T09:04:37;14.35;;;4.90;;
42586;SDS011;28216;53.362;-6.288;2023-05-20T09:07:03;14.48;;;4.60;;
42586;SDS011;28216;53.362;-6.288;2023-05-20T09:09:29;16.52;;;5.47;;
42586;SDS011;28216;53.362;-6.288;2023-05-20T09:11:58;12.88;;;4.55;;
42586;SDS011;28216;53.362;-6.288;2023-05-20T09:14:38;18.40;;;4.80;;
42586;SDS011;28216;53.362;-6.288;2023-05-20T09:17:04;15.90;;;5.53;;
42586;SDS011;28216;53.362;-6.288;2023-05-20T09:19:33;14.20;;;4.47;;
42586;SDS011;28216;53.362;-6.288;2023-05-20T09:22:00;14.07;;;5.18;;
42586;SDS011;28216;53.362;-6.288;2023-05-20T09:24:31;13.65;;;4.57;;
42586;SDS011;28216;53.362;-6.288;2023-05-20T09:26:57;17.90;;;4.47;;
42586;SDS011;28216;53.362;-6.288;2023-05-20T09:29:25;17.40;;;4.53;;
42586;SDS011;28216;53.362;-6.288;2023-05-20T09:31:51;14.77;;;4.82;;
42586;SDS011;28216;53.362;-6.288;2023-05-20T09:34:18;17.80;;;4.65;;
42586;SDS011;28216;53.362;-6.288;2023-05-20T09:36:45;13.05;;;4.38;;
42586;SDS011;28216;53.362;-6.288;2023-05-20T09:39:15;14.82;;;5.05;;
42586;SDS011;28216;53.362;-6.288;2023-05-20T09:44:40;20.10;;;5.30;;
42586;SDS011;28216;53.362;-6.288;2023-05-20T09:47:09;15.60;;;5.07;;
42586;SDS011;28216;53.362;-6.288;2023-05-20T09:49:35;11.82;;;4.57;;
42586;SDS011;28216;53.362;-6.288;2023-05-20T09:52:03;15.50;;;5.07;;
42586;SDS011;28216;53.362;-6.288;2023-05-20T09:54:29;14.27;;;5.30;;
42586;SDS011;28216;53.362;-6.288;2023-05-20T09:56:57;14.20;;;5.15;;
42586;SDS011;28216;53.362;-6.288;2023-05-20T09:59:24;18.13;;;5.50;;
42586;SDS011;28216;53.362;-6.288;2023-05-20T10:01:51;16.35;;;5.72;;
42586;SDS011;28216;53.362;-6.288;2023-05-20T10:04:17;19.83;;;5.43;;
42586;SDS011;28216;53.362;-6.288;2023-05-20T10:09:36;15.48;;;5.32;;
42586;SDS011;28216;53.362;-6.288;2023-05-20T10:12:33;12.05;;;5.03;;
42586;SDS011;28216;53.362;-6.288;2023-05-20T10:15:18;22.70;;;5.35;;
42586;SDS011;28216;53.362;-6.288;2023-05-20T10:18:01;16.23;;;5.13;;
42586;SDS011;28216;53.362;-6.288;2023-05-20T10:20:47;12.45;;;4.40;;
42586;SDS011;28216;53.362;-6.288;2023-05-20T10:23:21;15.27;;;5.25;;
42586;SDS011;28216;53.362;-6.288;2023-05-20T10:25:54;10.60;;;4.88;;
42586;SDS011;28216;53.362;-6.288;2023-05-20T10:28:27;15.18;;;5.15;;
42586;SDS011;28216;53.362;-6.288;2023-05-20T10:30:57;14.80;;;5.68;;
42586;SDS011;28216;53.362;-6.288;2023-05-20T10:33:24;13.45;;;4.97;;
42586;SDS011;28216;53.362;-6.288;2023-05-20T10:35:52;13.73;;;4.80;;
42586;SDS011;28216;53.362;-6.288;2023-05-20T10:38:18;14.50;;;5.07;;
42586;SDS011;28216;53.362;-6.288;2023-05-20T10:40:45;14.68;;;5.63;;
42586;SDS011;28216;53.362;-6.288;2023-05-20T10:43:29;10.63;;;4.68;;
42586;SDS011;28216;53.362;-6.288;2023-05-20T10:45:55;13.15;;;4.97;;
42586;SDS011;28216;53.362;-6.288;2023-05-20T10:48:27;15.52;;;5.28;;
42586;SDS011;28216;53.362;-6.288;2023-05-20T10:50:54;16.70;;;5.05;;
42586;SDS011;28216;53.362;-6.288;2023-05-20T10:53:21;12.20;;;4.72;;
42586;SDS011;28216;53.362;-6.288;2023-05-20T10:55:49;13.60;;;4.78;;
42586;SDS011;28216;53.362;-6.288;2023-05-20T10:58:16;16.52;;;5.30;;
42586;SDS011;28216;53.362;-6.288;2023-05-20T11:00:43;18.80;;;5.53;;
42586;SDS011;28216;53.362;-6.288;2023-05-20T11:03:08;17.90;;;5.20;;
42586;SDS011;28216;53.362;-6.288;2023-05-20T11:05:38;17.95;;;4.72;;
42586;SDS011;28216;53.362;-6.288;2023-05-20T11:08:07;15.55;;;5.50;;
42586;SDS011;28216;53.362;-6.288;2023-05-20T11:10:34;15.05;;;4.93;;
42586;SDS011;28216;53.362;-6.288;2023-05-20T11:13:01;21.83;;;5.50;;
42586;SDS011;28216;53.362;-6.288;2023-05-20T11:15:28;20.08;;;6.07;;
42586;SDS011;28216;53.362;-6.288;2023-05-20T11:17:55;15.00;;;5.15;;
42586;SDS011;28216;53.362;-6.288;2023-05-20T11:20:24;15.25;;;5.40;;
42586;SDS011;28216;53.362;-6.288;2023-05-20T11:22:50;14.30;;;4.78;;
42586;SDS011;28216;53.362;-6.288;2023-05-20T11:25:16;12.15;;;5.25;;
42586;SDS011;28216;53.362;-6.288;2023-05-20T11:27:43;14.95;;;5.55;;
42586;SDS011;28216;53.362;-6.288;2023-05-20T11:30:12;15.45;;;5.13;;
42586;SDS011;28216;53.362;-6.288;2023-05-20T11:33:01;15.43;;;4.75;;
42586;SDS011;28216;53.362;-6.288;2023-05-20T11:35:30;14.88;;;5.20;;
42586;SDS011;28216;53.362;-6.288;2023-05-20T11:38:04;21.08;;;6.07;;
42586;SDS011;28216;53.362;-6.288;2023-05-20T11:43:02;13.20;;;4.82;;
42586;SDS011;28216;53.362;-6.288;2023-05-20T11:45:43;21.02;;;6.13;;
42586;SDS011;28216;53.362;-6.288;2023-05-20T11:48:11;13.52;;;5.07;;
42586;SDS011;28216;53.362;-6.288;2023-05-20T11:50:40;15.88;;;5.10;;
42586;SDS011;28216;53.362;-6.288;2023-05-20T11:53:07;15.77;;;5.20;;
42586;SDS011;28216;53.362;-6.288;2023-05-20T11:55:48;15.48;;;5.45;;
42586;SDS011;28216;53.362;-6.288;2023-05-20T11:58:18;18.50;;;6.00;;
42586;SDS011;28216;53.362;-6.288;2023-05-20T12:00:48;15.77;;;5.10;;
42586;SDS011;28216;53.362;-6.288;2023-05-20T12:03:17;15.45;;;5.95;;
42586;SDS011;28216;53.362;-6.288;2023-05-20T12:05:43;17.02;;;7.30;;
42586;SDS011;28216;53.362;-6.288;2023-05-20T12:08:09;18.13;;;6.50;;
42586;SDS011;28216;53.362;-6.288;2023-05-20T12:51:56;17.48;;;5.72;;
42586;SDS011;28216;53.362;-6.288;2023-05-20T14:23:38;13.30;;;5.43;;
42586;SDS011;28216;53.362;-6.288;2023-05-20T14:26:09;19.23;;;5.88;;
42586;SDS011;28216;53.362;-6.288;2023-05-20T14:28:37;15.82;;;5.95;;
42586;SDS011;28216;53.362;-6.288;2023-05-20T14:31:21;16.60;;;6.20;;
42586;SDS011;28216;53.362;-6.288;2023-05-20T14:34:00;18.08;;;5.65;;
42586;SDS011;28216;53.362;-6.288;2023-05-20T14:36:36;17.88;;;5.85;;
42586;SDS011;28216;53.362;-6.288;2023-05-20T14:39:05;19.75;;;5.65;;
42586;SDS011;28216;53.362;-6.288;2023-05-20T14:41:41;15.02;;;6.07;;
42586;SDS011;28216;53.362;-6.288;2023-05-20T14:44:26;16.75;;;5.70;;
42586;SDS011;28216;53.362;-6.288;2023-05-20T14:46:56;14.73;;;5.55;;
42586;SDS011;28216;53.362;-6.288;2023-05-20T14:49:34;14.65;;;5.47;;
42586;SDS011;28216;53.362;-6.288;2023-05-20T14:55:08;18.58;;;5.55;;
42586;SDS011;28216;53.362;-6.288;2023-05-20T14:57:36;15.50;;;5.32;;
42586;SDS011;28216;53.362;-6.288;2023-05-20T15:00:07;13.68;;;4.93;;
42586;SDS011;28216;53.362;-6.288;2023-05-20T15:03:05;15.25;;;5.45;;
42586;SDS011;28216;53.362;-6.288;2023-05-20T15:05:56;12.30;;;4.97;;
42586;SDS011;28216;53.362;-6.288;2023-05-20T15:08:22;14.20;;;5.50;;
42586;SDS011;28216;53.362;-6.288;2023-05-20T15:11:14;14.43;;;5.28;;
42586;SDS011;28216;53.362;-6.288;2023-05-20T15:25:36;9.80;;;4.38;;
42586;SDS011;28216;53.362;-6.288;2023-05-20T15:28:07;11.57;;;4.35;;
42586;SDS011;28216;53.362;-6.288;2023-05-20T15:31:01;9.98;;;4.65;;
42586;SDS011;28216;53.362;-6.288;2023-05-20T15:33:39;10.85;;;4.43;;
42586;SDS011;28216;53.362;-6.288;2023-05-20T15:36:12;10.60;;;4.22;;
42586;SDS011;28216;53.362;-6.288;2023-05-20T15:38:57;13.35;;;4.70;;
42586;SDS011;28216;53.362;-6.288;2023-05-20T15:42:01;13.95;;;4.63;;
42586;SDS011;28216;53.362;-6.288;2023-05-20T15:45:07;11.13;;;4.40;;
42586;SDS011;28216;53.362;-6.288;2023-05-20T15:47:59;11.60;;;4.72;;
42586;SDS011;28216;53.362;-6.288;2023-05-20T15:50:33;12.40;;;4.57;;
42586;SDS011;28216;53.362;-6.288;2023-05-20T15:53:14;10.07;;;4.50;;
42586;SDS011;28216;53.362;-6.288;2023-05-20T15:56:13;11.63;;;5.25;;
42586;SDS011;28216;53.362;-6.288;2023-05-20T15:59:24;9.93;;;4.30;;
42586;SDS011;28216;53.362;-6.288;2023-05-20T16:02:39;8.48;;;4.22;;
42586;SDS011;28216;53.362;-6.288;2023-05-20T16:05:41;9.43;;;4.28;;
42586;SDS011;28216;53.362;-6.288;2023-05-20T16:14:43;12.43;;;4.88;;
42586;SDS011;28216;53.362;-6.288;2023-05-20T16:20:22;11.07;;;4.80;;
42586;SDS011;28216;53.362;-6.288;2023-05-20T16:22:53;11.38;;;4.60;;
42586;SDS011;28216;53.362;-6.288;2023-05-20T16:25:40;13.77;;;5.18;;
42586;SDS011;28216;53.362;-6.288;2023-05-20T16:28:46;9.52;;;4.30;;
42586;SDS011;28216;53.362;-6.288;2023-05-20T16:31:24;11.23;;;4.47;;
42586;SDS011;28216;53.362;-6.288;2023-05-20T16:34:19;9.75;;;4.43;;
42586;SDS011;28216;53.362;-6.288;2023-05-20T16:37:07;8.48;;;4.60;;
42586;SDS011;28216;53.362;-6.288;2023-05-20T16:53:32;13.63;;;4.60;;
42586;SDS011;28216;53.362;-6.288;2023-05-20T16:56:01;11.00;;;4.65;;
42586;SDS011;28216;53.362;-6.288;2023-05-20T17:04:07;13.63;;;5.15;;
42586;SDS011;28216;53.362;-6.288;2023-05-20T17:10:28;12.00;;;5.15;;
42586;SDS011;28216;53.362;-6.288;2023-05-20T17:21:05;12.30;;;5.15;;
42586;SDS011;28216;53.362;-6.288;2023-05-20T17:24:28;15.18;;;5.78;;
42586;SDS011;28216;53.362;-6.288;2023-05-20T17:27:19;15.43;;;6.68;;
42586;SDS011;28216;53.362;-6.288;2023-05-20T17:29:52;16.83;;;6.47;;
42586;SDS011;28216;53.362;-6.288;2023-05-20T17:32:26;16.67;;;8.45;;
42586;SDS011;28216;53.362;-6.288;2023-05-20T17:35:05;24.50;;;14.55;;
42586;SDS011;28216;53.362;-6.288;2023-05-20T17:40:36;23.55;;;15.20;;
42586;SDS011;28216;53.362;-6.288;2023-05-20T17:43:13;27.38;;;17.80;;
42586;SDS011;28216;53.362;-6.288;2023-05-20T17:45:46;25.92;;;18.48;;
42586;SDS011;28216;53.362;-6.288;2023-05-20T17:48:26;28.85;;;19.45;;
42586;SDS011;28216;53.362;-6.288;2023-05-20T17:51:17;31.67;;;18.67;;
42586;SDS011;28216;53.362;-6.288;2023-05-20T17:54:24;31.70;;;20.27;;
42586;SDS011;28216;53.362;-6.288;2023-05-20T17:57:37;30.08;;;20.17;;
42586;SDS011;28216;53.362;-6.288;2023-05-20T18:00:14;29.67;;;19.58;;
42586;SDS011;28216;53.362;-6.288;2023-05-20T18:03:01;29.27;;;19.98;;
42586;SDS011;28216;53.362;-6.288;2023-05-20T18:05:40;28.73;;;19.38;;
42586;SDS011;28216;53.362;-6.288;2023-05-20T18:08:14;34.85;;;20.55;;
42586;SDS011;28216;53.362;-6.288;2023-05-20T18:11:07;33.15;;;20.92;;
42586;SDS011;28216;53.362;-6.288;2023-05-20T18:13:43;34.00;;;19.73;;
42586;SDS011;28216;53.362;-6.288;2023-05-20T18:16:09;30.45;;;20.83;;
42586;SDS011;28216;53.362;-6.288;2023-05-20T18:18:47;33.38;;;21.20;;
42586;SDS011;28216;53.362;-6.288;2023-05-20T18:21:42;32.53;;;20.95;;
42586;SDS011;28216;53.362;-6.288;2023-05-20T18:24:10;29.67;;;19.55;;
42586;SDS011;28216;53.362;-6.288;2023-05-20T18:26:49;32.83;;;21.60;;
42586;SDS011;28216;53.362;-6.288;2023-05-20T18:29:17;31.63;;;19.88;;
42586;SDS011;28216;53.362;-6.288;2023-05-20T18:31:49;28.83;;;19.40;;
42586;SDS011;28216;53.362;-6.288;2023-05-20T18:34:17;31.98;;;20.15;;